sensor_id;sensor_type;location;lat;lon;timestamp;P1;durP1;ratioP1;P2;durP2;ratioP2
30247;SDS011;17063;50.892;4.702;2022-12-24T00:01:01;23.23;;;3.53;;
30247;SDS011;17063;50.892;4.702;2022-12-24T00:03:28;27.13;;;3.90;;
30247;SDS011;17063;50.892;4.702;2022-12-24T00:05:55;30.03;;;5.03;;
30247;SDS011;17063;50.892;4.702;2022-12-24T00:08:22;32.67;;;5.27;;
30247;SDS011;17063;50.892;4.702;2022-12-24T00:10:50;30.93;;;4.17;;
30247;SDS011;17063;50.892;4.702;2022-12-24T00:13:19;23.80;;;3.50;;
30247;SDS011;17063;50.892;4.702;2022-12-24T00:15:46;31.83;;;3.90;;
30247;SDS011;17063;50.892;4.702;2022-12-24T00:18:14;28.30;;;4.77;;
30247;SDS011;17063;50.892;4.702;2022-12-24T00:20:44;40.80;;;4.40;;
30247;SDS011;17063;50.892;4.702;2022-12-24T00:23:13;27.70;;;4.60;;
30247;SDS011;17063;50.892;4.702;2022-12-24T00:25:41;32.27;;;4.50;;
30247;SDS011;17063;50.892;4.702;2022-12-24T00:28:07;33.40;;;4.83;;
30247;SDS011;17063;50.892;4.702;2022-12-24T00:30:36;27.90;;;4.23;;
30247;SDS011;17063;50.892;4.702;2022-12-24T00:33:04;24.60;;;3.90;;
30247;SDS011;17063;50.892;4.702;2022-12-24T00:35:35;26.47;;;4.80;;
30247;SDS011;17063;50.892;4.702;2022-12-24T00:38:03;27.70;;;4.50;;
30247;SDS011;17063;50.892;4.702;2022-12-24T00:40:30;32.67;;;4.77;;
30247;SDS011;17063;50.892;4.702;2022-12-24T00:42:57;31.93;;;4.53;;
30247;SDS011;17063;50.892;4.702;2022-12-24T00:45:24;30.33;;;4.57;;
30247;SDS011;17063;50.892;4.702;2022-12-24T00:47:53;21.83;;;4.43;;
30247;SDS011;17063;50.892;4.702;2022-12-24T00:50:20;25.70;;;5.03;;
30247;SDS011;17063;50.892;4.702;2022-12-24T00:52:47;33.10;;;4.87;;
30247;SDS011;17063;50.892;4.702;2022-12-24T00:55:14;27.50;;;5.13;;
30247;SDS011;17063;50.892;4.702;2022-12-24T00:57:40;31.73;;;5.00;;
30247;SDS011;17063;50.892;4.702;2022-12-24T01:00:07;27.43;;;4.60;;
30247;SDS011;17063;50.892;4.702;2022-12-24T01:02:35;28.00;;;4.27;;
30247;SDS011;17063;50.892;4.702;2022-12-24T01:05:05;24.33;;;4.10;;
30247;SDS011;17063;50.892;4.702;2022-12-24T01:07:46;26.13;;;3.87;;
30247;SDS011;17063;50.892;4.702;2022-12-24T01:10:16;28.93;;;3.80;;
30247;SDS011;17063;50.892;4.702;2022-12-24T01:12:45;29.83;;;4.47;;
30247;SDS011;17063;50.892;4.702;2022-12-24T01:15:12;22.43;;;3.73;;
30247;SDS011;17063;50.892;4.702;2022-12-24T01:17:40;23.33;;;3.90;;
30247;SDS011;17063;50.892;4.702;2022-12-24T01:20:07;28.17;;;4.10;;
30247;SDS011;17063;50.892;4.702;2022-12-24T01:22:39;28.77;;;4.50;;
30247;SDS011;17063;50.892;4.702;2022-12-24T01:25:06;24.93;;;3.83;;
30247;SDS011;17063;50.892;4.702;2022-12-24T01:27:33;29.53;;;4.53;;
30247;SDS011;17063;50.892;4.702;2022-12-24T01:30:00;25.47;;;4.07;;
30247;SDS011;17063;50.892;4.702;2022-12-24T01:32:27;32.13;;;3.83;;
30247;SDS011;17063;50.892;4.702;2022-12-24T01:34:54;30.27;;;4.63;;
30247;SDS011;17063;50.892;4.702;2022-12-24T01:37:20;19.60;;;4.17;;
30247;SDS011;17063;50.892;4.702;2022-12-24T01:39:47;30.90;;;4.67;;
30247;SDS011;17063;50.892;4.702;2022-12-24T01:42:18;31.30;;;4.60;;
30247;SDS011;17063;50.892;4.702;2022-12-24T01:45:34;21.00;;;3.23;;
30247;SDS011;17063;50.892;4.702;2022-12-24T01:48:13;21.80;;;3.07;;
30247;SDS011;17063;50.892;4.702;2022-12-24T01:50:43;17.57;;;3.37;;
30247;SDS011;17063;50.892;4.702;2022-12-24T01:53:10;12.70;;;2.87;;
30247;SDS011;17063;50.892;4.702;2022-12-24T01:55:39;14.10;;;2.70;;
30247;SDS011;17063;50.892;4.702;2022-12-24T01:58:07;13.33;;;2.30;;
30247;SDS011;17063;50.892;4.702;2022-12-24T02:00:35;13.80;;;2.50;;
30247;SDS011;17063;50.892;4.702;2022-12-24T02:03:02;13.17;;;2.37;;
30247;SDS011;17063;50.892;4.702;2022-12-24T02:08:17;10.47;;;1.93;;
30247;SDS011;17063;50.892;4.702;2022-12-24T02:10:44;13.73;;;2.47;;
30247;SDS011;17063;50.892;4.702;2022-12-24T02:13:13;11.67;;;2.10;;
30247;SDS011;17063;50.892;4.702;2022-12-24T02:27:07;27.37;;;3.47;;
30247;SDS011;17063;50.892;4.702;2022-12-24T02:32:41;27.10;;;3.67;;
30247;SDS011;17063;50.892;4.702;2022-12-24T02:35:24;23.97;;;4.03;;
30247;SDS011;17063;50.892;4.702;2022-12-24T02:37:57;21.03;;;3.63;;
30247;SDS011;17063;50.892;4.702;2022-12-24T02:40:30;27.90;;;4.27;;
30247;SDS011;17063;50.892;4.702;2022-12-24T02:43:07;28.83;;;4.57;;
30247;SDS011;17063;50.892;4.702;2022-12-24T02:45:37;27.23;;;3.90;;
30247;SDS011;17063;50.892;4.702;2022-12-24T02:48:05;23.07;;;3.77;;
30247;SDS011;17063;50.892;4.702;2022-12-24T02:50:32;29.40;;;4.00;;
30247;SDS011;17063;50.892;4.702;2022-12-24T02:52:59;19.13;;;3.50;;
30247;SDS011;17063;50.892;4.702;2022-12-24T02:55:35;25.13;;;5.00;;
30247;SDS011;17063;50.892;4.702;2022-12-24T03:04:17;20.77;;;3.60;;
30247;SDS011;17063;50.892;4.702;2022-12-24T03:10:23;24.47;;;3.47;;
30247;SDS011;17063;50.892;4.702;2022-12-24T03:12:34;15.43;;;3.67;;
30247;SDS011;17063;50.892;4.702;2022-12-24T03:15:05;20.90;;;3.53;;
30247;SDS011;17063;50.892;4.702;2022-12-24T03:17:35;28.27;;;4.37;;
30247;SDS011;17063;50.892;4.702;2022-12-24T03:20:03;26.80;;;4.40;;
30247;SDS011;17063;50.892;4.702;2022-12-24T03:22:32;21.83;;;3.90;;
30247;SDS011;17063;50.892;4.702;2022-12-24T03:25:00;16.17;;;3.13;;
30247;SDS011;17063;50.892;4.702;2022-12-24T03:27:27;19.57;;;3.60;;
30247;SDS011;17063;50.892;4.702;2022-12-24T03:29:55;23.73;;;4.23;;
30247;SDS011;17063;50.892;4.702;2022-12-24T03:32:23;20.20;;;3.37;;
30247;SDS011;17063;50.892;4.702;2022-12-24T03:34:51;19.97;;;4.00;;
30247;SDS011;17063;50.892;4.702;2022-12-24T03:37:18;22.93;;;3.20;;
30247;SDS011;17063;50.892;4.702;2022-12-24T03:39:45;23.03;;;3.33;;
30247;SDS011;17063;50.892;4.702;2022-12-24T03:42:11;22.50;;;3.77;;
30247;SDS011;17063;50.892;4.702;2022-12-24T03:44:38;28.93;;;4.13;;
30247;SDS011;17063;50.892;4.702;2022-12-24T03:47:06;22.13;;;3.70;;
30247;SDS011;17063;50.892;4.702;2022-12-24T03:49:33;20.63;;;3.93;;
30247;SDS011;17063;50.892;4.702;2022-12-24T03:52:00;25.10;;;3.83;;
30247;SDS011;17063;50.892;4.702;2022-12-24T03:54:27;21.07;;;3.57;;
30247;SDS011;17063;50.892;4.702;2022-12-24T03:56:54;18.67;;;4.43;;
30247;SDS011;17063;50.892;4.702;2022-12-24T03:59:21;21.33;;;4.00;;
30247;SDS011;17063;50.892;4.702;2022-12-24T04:01:47;22.47;;;4.30;;
30247;SDS011;17063;50.892;4.702;2022-12-24T04:04:14;28.27;;;3.30;;
30247;SDS011;17063;50.892;4.702;2022-12-24T04:06:41;29.30;;;3.77;;
30247;SDS011;17063;50.892;4.702;2022-12-24T04:09:08;29.13;;;4.17;;
30247;SDS011;17063;50.892;4.702;2022-12-24T04:11:35;31.23;;;4.40;;
30247;SDS011;17063;50.892;4.702;2022-12-24T04:14:02;33.57;;;3.90;;
30247;SDS011;17063;50.892;4.702;2022-12-24T04:16:29;28.80;;;3.97;;
30247;SDS011;17063;50.892;4.702;2022-12-24T04:18:55;27.23;;;4.30;;
30247;SDS011;17063;50.892;4.702;2022-12-24T04:21:23;24.13;;;4.93;;
30247;SDS011;17063;50.892;4.702;2022-12-24T04:23:50;29.73;;;4.40;;
30247;SDS011;17063;50.892;4.702;2022-12-24T04:26:17;28.83;;;4.37;;
30247;SDS011;17063;50.892;4.702;2022-12-24T04:28:44;31.17;;;4.87;;
30247;SDS011;17063;50.892;4.702;2022-12-24T04:31:12;33.63;;;4.90;;
30247;SDS011;17063;50.892;4.702;2022-12-24T04:33:40;31.20;;;6.00;;
30247;SDS011;17063;50.892;4.702;2022-12-24T04:36:07;23.90;;;4.00;;
30247;SDS011;17063;50.892;4.702;2022-12-24T04:38:37;28.00;;;5.17;;
30247;SDS011;17063;50.892;4.702;2022-12-24T04:41:06;33.33;;;4.43;;
30247;SDS011;17063;50.892;4.702;2022-12-24T04:43:36;35.10;;;4.93;;
30247;SDS011;17063;50.892;4.702;2022-12-24T04:46:12;27.67;;;4.30;;
30247;SDS011;17063;50.892;4.702;2022-12-24T04:48:41;24.47;;;4.43;;
30247;SDS011;17063;50.892;4.702;2022-12-24T04:51:08;32.90;;;5.13;;
30247;SDS011;17063;50.892;4.702;2022-12-24T04:53:35;37.43;;;4.50;;
30247;SDS011;17063;50.892;4.702;2022-12-24T04:56:06;30.00;;;4.10;;
30247;SDS011;17063;50.892;4.702;2022-12-24T04:58:34;26.77;;;4.30;;
30247;SDS011;17063;50.892;4.702;2022-12-24T05:01:02;26.47;;;4.10;;
30247;SDS011;17063;50.892;4.702;2022-12-24T05:03:34;31.80;;;4.63;;
30247;SDS011;17063;50.892;4.702;2022-12-24T05:06:02;34.53;;;5.23;;
30247;SDS011;17063;50.892;4.702;2022-12-24T05:08:33;33.10;;;4.87;;
30247;SDS011;17063;50.892;4.702;2022-12-24T05:11:00;32.90;;;5.40;;
30247;SDS011;17063;50.892;4.702;2022-12-24T05:13:28;26.10;;;3.83;;
30247;SDS011;17063;50.892;4.702;2022-12-24T05:16:08;29.30;;;4.00;;
30247;SDS011;17063;50.892;4.702;2022-12-24T05:18:35;28.67;;;4.63;;
30247;SDS011;17063;50.892;4.702;2022-12-24T05:21:02;26.93;;;4.23;;
30247;SDS011;17063;50.892;4.702;2022-12-24T05:23:29;32.23;;;4.53;;
30247;SDS011;17063;50.892;4.702;2022-12-24T05:26:15;29.87;;;4.23;;
30247;SDS011;17063;50.892;4.702;2022-12-24T05:29:03;28.20;;;4.10;;
30247;SDS011;17063;50.892;4.702;2022-12-24T05:31:31;26.87;;;4.90;;
30247;SDS011;17063;50.892;4.702;2022-12-24T05:33:59;28.60;;;4.03;;
30247;SDS011;17063;50.892;4.702;2022-12-24T05:36:26;24.13;;;5.77;;
30247;SDS011;17063;50.892;4.702;2022-12-24T05:38:53;24.87;;;4.80;;
30247;SDS011;17063;50.892;4.702;2022-12-24T05:41:20;29.80;;;3.87;;
30247;SDS011;17063;50.892;4.702;2022-12-24T05:43:47;30.13;;;4.27;;
30247;SDS011;17063;50.892;4.702;2022-12-24T05:46:16;36.37;;;5.43;;
30247;SDS011;17063;50.892;4.702;2022-12-24T05:48:44;31.00;;;4.63;;
30247;SDS011;17063;50.892;4.702;2022-12-24T05:51:13;34.00;;;4.77;;
30247;SDS011;17063;50.892;4.702;2022-12-24T05:53:40;28.03;;;4.70;;
30247;SDS011;17063;50.892;4.702;2022-12-24T05:56:08;34.17;;;4.30;;
30247;SDS011;17063;50.892;4.702;2022-12-24T05:58:37;30.70;;;4.03;;
30247;SDS011;17063;50.892;4.702;2022-12-24T06:01:07;25.27;;;4.10;;
30247;SDS011;17063;50.892;4.702;2022-12-24T06:03:34;26.20;;;4.60;;
30247;SDS011;17063;50.892;4.702;2022-12-24T06:06:06;22.43;;;4.17;;
30247;SDS011;17063;50.892;4.702;2022-12-24T06:08:37;32.90;;;5.00;;
30247;SDS011;17063;50.892;4.702;2022-12-24T06:11:06;29.83;;;4.67;;
30247;SDS011;17063;50.892;4.702;2022-12-24T06:13:35;30.53;;;4.73;;
30247;SDS011;17063;50.892;4.702;2022-12-24T06:16:03;29.67;;;5.40;;
30247;SDS011;17063;50.892;4.702;2022-12-24T06:18:32;33.90;;;3.97;;
30247;SDS011;17063;50.892;4.702;2022-12-24T06:20:59;35.53;;;4.60;;
30247;SDS011;17063;50.892;4.702;2022-12-24T06:23:30;33.70;;;4.63;;
30247;SDS011;17063;50.892;4.702;2022-12-24T06:25:59;30.93;;;4.30;;
30247;SDS011;17063;50.892;4.702;2022-12-24T06:28:27;28.27;;;5.07;;
30247;SDS011;17063;50.892;4.702;2022-12-24T06:30:54;31.03;;;4.73;;
30247;SDS011;17063;50.892;4.702;2022-12-24T06:33:28;21.87;;;3.77;;
30247;SDS011;17063;50.892;4.702;2022-12-24T06:35:55;25.80;;;5.00;;
30247;SDS011;17063;50.892;4.702;2022-12-24T06:38:22;34.60;;;4.87;;
30247;SDS011;17063;50.892;4.702;2022-12-24T06:40:48;40.30;;;5.37;;
30247;SDS011;17063;50.892;4.702;2022-12-24T06:43:15;31.70;;;5.37;;
30247;SDS011;17063;50.892;4.702;2022-12-24T06:45:46;25.37;;;4.10;;
30247;SDS011;17063;50.892;4.702;2022-12-24T06:48:14;37.17;;;5.37;;
30247;SDS011;17063;50.892;4.702;2022-12-24T06:50:41;36.27;;;5.40;;
30247;SDS011;17063;50.892;4.702;2022-12-24T06:53:08;30.30;;;4.40;;
30247;SDS011;17063;50.892;4.702;2022-12-24T06:55:35;34.97;;;5.03;;
30247;SDS011;17063;50.892;4.702;2022-12-24T06:58:02;34.00;;;5.07;;
30247;SDS011;17063;50.892;4.702;2022-12-24T07:00:29;25.97;;;4.70;;
30247;SDS011;17063;50.892;4.702;2022-12-24T07:02:56;31.57;;;4.60;;
30247;SDS011;17063;50.892;4.702;2022-12-24T07:05:23;28.23;;;4.53;;
30247;SDS011;17063;50.892;4.702;2022-12-24T07:07:50;33.73;;;4.93;;
30247;SDS011;17063;50.892;4.702;2022-12-24T07:10:17;28.13;;;5.27;;
30247;SDS011;17063;50.892;4.702;2022-12-24T07:12:45;28.53;;;4.43;;
30247;SDS011;17063;50.892;4.702;2022-12-24T07:15:12;33.57;;;5.10;;
30247;SDS011;17063;50.892;4.702;2022-12-24T07:17:43;30.77;;;5.10;;
30247;SDS011;17063;50.892;4.702;2022-12-24T07:20:11;31.17;;;5.00;;
30247;SDS011;17063;50.892;4.702;2022-12-24T07:22:40;29.20;;;4.60;;
30247;SDS011;17063;50.892;4.702;2022-12-24T07:25:08;25.37;;;4.43;;
30247;SDS011;17063;50.892;4.702;2022-12-24T07:27:35;22.13;;;4.20;;
30247;SDS011;17063;50.892;4.702;2022-12-24T07:30:02;30.23;;;4.40;;
30247;SDS011;17063;50.892;4.702;2022-12-24T07:32:30;26.47;;;4.37;;
30247;SDS011;17063;50.892;4.702;2022-12-24T07:34:57;29.13;;;4.87;;
30247;SDS011;17063;50.892;4.702;2022-12-24T07:37:24;31.17;;;4.77;;
30247;SDS011;17063;50.892;4.702;2022-12-24T07:39:51;29.23;;;4.67;;
30247;SDS011;17063;50.892;4.702;2022-12-24T07:42:18;24.10;;;3.67;;
30247;SDS011;17063;50.892;4.702;2022-12-24T07:44:45;33.30;;;5.57;;
30247;SDS011;17063;50.892;4.702;2022-12-24T07:47:12;31.93;;;4.53;;
30247;SDS011;17063;50.892;4.702;2022-12-24T07:49:39;25.20;;;4.43;;
30247;SDS011;17063;50.892;4.702;2022-12-24T07:52:06;24.20;;;4.37;;
30247;SDS011;17063;50.892;4.702;2022-12-24T07:54:33;19.93;;;4.00;;
30247;SDS011;17063;50.892;4.702;2022-12-24T07:57:00;30.77;;;4.60;;
30247;SDS011;17063;50.892;4.702;2022-12-24T07:59:27;22.73;;;4.93;;
30247;SDS011;17063;50.892;4.702;2022-12-24T08:01:54;22.57;;;4.80;;
30247;SDS011;17063;50.892;4.702;2022-12-24T08:04:21;31.43;;;5.67;;
30247;SDS011;17063;50.892;4.702;2022-12-24T08:06:48;33.87;;;4.50;;
30247;SDS011;17063;50.892;4.702;2022-12-24T08:09:14;30.13;;;4.03;;
30247;SDS011;17063;50.892;4.702;2022-12-24T08:11:41;26.53;;;4.30;;
30247;SDS011;17063;50.892;4.702;2022-12-24T08:14:16;27.30;;;4.40;;
30247;SDS011;17063;50.892;4.702;2022-12-24T08:16:43;31.57;;;4.63;;
30247;SDS011;17063;50.892;4.702;2022-12-24T08:19:10;31.13;;;5.50;;
30247;SDS011;17063;50.892;4.702;2022-12-24T08:21:37;28.77;;;4.93;;
30247;SDS011;17063;50.892;4.702;2022-12-24T08:24:04;35.33;;;6.23;;
30247;SDS011;17063;50.892;4.702;2022-12-24T08:26:31;21.60;;;4.73;;
30247;SDS011;17063;50.892;4.702;2022-12-24T08:28:58;40.37;;;5.27;;
30247;SDS011;17063;50.892;4.702;2022-12-24T08:31:25;35.63;;;4.33;;
30247;SDS011;17063;50.892;4.702;2022-12-24T08:33:52;23.97;;;4.13;;
30247;SDS011;17063;50.892;4.702;2022-12-24T08:36:18;33.17;;;4.87;;
30247;SDS011;17063;50.892;4.702;2022-12-24T08:38:45;36.43;;;4.87;;
30247;SDS011;17063;50.892;4.702;2022-12-24T08:41:12;45.60;;;5.33;;
30247;SDS011;17063;50.892;4.702;2022-12-24T08:43:39;32.17;;;5.73;;
30247;SDS011;17063;50.892;4.702;2022-12-24T08:46:06;33.07;;;5.90;;
30247;SDS011;17063;50.892;4.702;2022-12-24T08:48:33;30.97;;;5.17;;
30247;SDS011;17063;50.892;4.702;2022-12-24T08:51:04;43.37;;;6.00;;
30247;SDS011;17063;50.892;4.702;2022-12-24T08:53:33;32.03;;;4.60;;
30247;SDS011;17063;50.892;4.702;2022-12-24T08:56:04;31.87;;;4.23;;
30247;SDS011;17063;50.892;4.702;2022-12-24T08:58:32;29.63;;;5.53;;
30247;SDS011;17063;50.892;4.702;2022-12-24T09:00:59;29.07;;;4.40;;
30247;SDS011;17063;50.892;4.702;2022-12-24T09:03:27;39.77;;;5.97;;
30247;SDS011;17063;50.892;4.702;2022-12-24T09:05:54;27.97;;;5.13;;
30247;SDS011;17063;50.892;4.702;2022-12-24T09:08:21;29.10;;;5.67;;
30247;SDS011;17063;50.892;4.702;2022-12-24T09:10:48;31.57;;;4.67;;
30247;SDS011;17063;50.892;4.702;2022-12-24T09:13:15;29.83;;;4.63;;
30247;SDS011;17063;50.892;4.702;2022-12-24T09:15:41;32.23;;;5.23;;
30247;SDS011;17063;50.892;4.702;2022-12-24T09:18:08;33.87;;;4.47;;
30247;SDS011;17063;50.892;4.702;2022-12-24T09:20:36;30.97;;;4.97;;
30247;SDS011;17063;50.892;4.702;2022-12-24T09:23:09;24.93;;;4.33;;
30247;SDS011;17063;50.892;4.702;2022-12-24T09:25:43;26.43;;;5.10;;
30247;SDS011;17063;50.892;4.702;2022-12-24T09:28:10;33.57;;;4.83;;
30247;SDS011;17063;50.892;4.702;2022-12-24T09:30:37;33.53;;;5.30;;
30247;SDS011;17063;50.892;4.702;2022-12-24T09:33:04;33.33;;;4.83;;
30247;SDS011;17063;50.892;4.702;2022-12-24T09:35:30;36.60;;;4.83;;
30247;SDS011;17063;50.892;4.702;2022-12-24T09:37:57;34.90;;;5.23;;
30247;SDS011;17063;50.892;4.702;2022-12-24T09:40:37;28.20;;;5.07;;
30247;SDS011;17063;50.892;4.702;2022-12-24T09:43:10;37.07;;;4.97;;
30247;SDS011;17063;50.892;4.702;2022-12-24T09:45:45;28.93;;;5.23;;
30247;SDS011;17063;50.892;4.702;2022-12-24T09:48:20;37.03;;;5.97;;
30247;SDS011;17063;50.892;4.702;2022-12-24T09:50:52;27.43;;;4.80;;
30247;SDS011;17063;50.892;4.702;2022-12-24T09:56:22;20.30;;;4.17;;
30247;SDS011;17063;50.892;4.702;2022-12-24T09:58:59;30.37;;;5.10;;
30247;SDS011;17063;50.892;4.702;2022-12-24T10:01:28;33.07;;;5.03;;
30247;SDS011;17063;50.892;4.702;2022-12-24T10:04:18;36.83;;;5.43;;
30247;SDS011;17063;50.892;4.702;2022-12-24T10:12:20;21.57;;;5.00;;
30247;SDS011;17063;50.892;4.702;2022-12-24T10:20:32;21.07;;;4.47;;
30247;SDS011;17063;50.892;4.702;2022-12-24T10:34:23;23.37;;;4.73;;
30247;SDS011;17063;50.892;4.702;2022-12-24T10:36:54;34.23;;;5.00;;
30247;SDS011;17063;50.892;4.702;2022-12-24T10:39:22;26.53;;;4.80;;
30247;SDS011;17063;50.892;4.702;2022-12-24T10:41:51;26.10;;;4.50;;
30247;SDS011;17063;50.892;4.702;2022-12-24T10:44:21;21.57;;;4.27;;
30247;SDS011;17063;50.892;4.702;2022-12-24T10:46:50;29.90;;;4.93;;
30247;SDS011;17063;50.892;4.702;2022-12-24T10:52:11;21.10;;;4.00;;
30247;SDS011;17063;50.892;4.702;2022-12-24T10:57:36;23.40;;;4.10;;
30247;SDS011;17063;50.892;4.702;2022-12-24T11:00:05;34.83;;;5.87;;
30247;SDS011;17063;50.892;4.702;2022-12-24T11:02:34;26.33;;;3.50;;
30247;SDS011;17063;50.892;4.702;2022-12-24T11:05:04;28.97;;;4.17;;
30247;SDS011;17063;50.892;4.702;2022-12-24T11:07:33;32.17;;;4.83;;
30247;SDS011;17063;50.892;4.702;2022-12-24T11:10:01;24.70;;;5.70;;
30247;SDS011;17063;50.892;4.702;2022-12-24T11:12:34;38.20;;;8.37;;
30247;SDS011;17063;50.892;4.702;2022-12-24T11:17:32;23.07;;;4.67;;
30247;SDS011;17063;50.892;4.702;2022-12-24T11:19:59;32.40;;;5.97;;
30247;SDS011;17063;50.892;4.702;2022-12-24T11:22:29;37.57;;;5.50;;
30247;SDS011;17063;50.892;4.702;2022-12-24T11:24:58;30.13;;;5.20;;
30247;SDS011;17063;50.892;4.702;2022-12-24T11:35:26;30.50;;;4.30;;
30247;SDS011;17063;50.892;4.702;2022-12-24T11:40:37;28.50;;;4.87;;
30247;SDS011;17063;50.892;4.702;2022-12-24T11:43:10;32.53;;;5.00;;
30247;SDS011;17063;50.892;4.702;2022-12-24T11:45:46;25.87;;;4.83;;
30247;SDS011;17063;50.892;4.702;2022-12-24T11:48:28;30.07;;;5.90;;
30247;SDS011;17063;50.892;4.702;2022-12-24T11:51:00;31.10;;;5.87;;
30247;SDS011;17063;50.892;4.702;2022-12-24T11:53:43;31.87;;;5.43;;
30247;SDS011;17063;50.892;4.702;2022-12-24T11:59:04;34.30;;;5.47;;
30247;SDS011;17063;50.892;4.702;2022-12-24T12:01:37;36.50;;;4.60;;
30247;SDS011;17063;50.892;4.702;2022-12-24T12:06:51;35.37;;;6.20;;
30247;SDS011;17063;50.892;4.702;2022-12-24T12:09:37;30.37;;;4.70;;
30247;SDS011;17063;50.892;4.702;2022-12-24T12:12:14;24.60;;;4.00;;
30247;SDS011;17063;50.892;4.702;2022-12-24T12:14:49;29.80;;;5.17;;
30247;SDS011;17063;50.892;4.702;2022-12-24T12:17:31;30.70;;;4.70;;
30247;SDS011;17063;50.892;4.702;2022-12-24T12:20:05;27.80;;;5.27;;
30247;SDS011;17063;50.892;4.702;2022-12-24T12:22:59;25.17;;;4.20;;
30247;SDS011;17063;50.892;4.702;2022-12-24T12:28:06;25.77;;;5.53;;
30247;SDS011;17063;50.892;4.702;2022-12-24T12:31:01;33.50;;;6.07;;
30247;SDS011;17063;50.892;4.702;2022-12-24T12:34:02;24.93;;;4.53;;
30247;SDS011;17063;50.892;4.702;2022-12-24T12:36:47;24.67;;;4.87;;
30247;SDS011;17063;50.892;4.702;2022-12-24T12:39:18;30.50;;;5.70;;
30247;SDS011;17063;50.892;4.702;2022-12-24T12:44:40;25.27;;;4.50;;
30247;SDS011;17063;50.892;4.702;2022-12-24T12:47:30;31.27;;;4.77;;
30247;SDS011;17063;50.892;4.702;2022-12-24T13:01:12;21.10;;;3.97;;
30247;SDS011;17063;50.892;4.702;2022-12-24T13:10:10;26.60;;;3.63;;
30247;SDS011;17063;50.892;4.702;2022-12-24T13:13:11;26.57;;;4.20;;
30247;SDS011;17063;50.892;4.702;2022-12-24T13:21:36;27.87;;;4.47;;
30247;SDS011;17063;50.892;4.702;2022-12-24T13:27:03;25.87;;;4.50;;
30247;SDS011;17063;50.892;4.702;2022-12-24T13:40:02;21.93;;;3.83;;
30247;SDS011;17063;50.892;4.702;2022-12-24T13:42:48;19.90;;;4.27;;
30247;SDS011;17063;50.892;4.702;2022-12-24T13:47:57;32.03;;;3.87;;
30247;SDS011;17063;50.892;4.702;2022-12-24T13:50:47;25.43;;;4.00;;
30247;SDS011;17063;50.892;4.702;2022-12-24T13:55:55;31.80;;;5.03;;
30247;SDS011;17063;50.892;4.702;2022-12-24T13:58:25;25.97;;;4.20;;
30247;SDS011;17063;50.892;4.702;2022-12-24T14:00:59;29.70;;;4.67;;
30247;SDS011;17063;50.892;4.702;2022-12-24T14:03:30;21.07;;;4.00;;
30247;SDS011;17063;50.892;4.702;2022-12-24T14:08:44;37.70;;;4.53;;
30247;SDS011;17063;50.892;4.702;2022-12-24T14:11:19;22.57;;;3.67;;
30247;SDS011;17063;50.892;4.702;2022-12-24T14:16:15;25.40;;;4.30;;
30247;SDS011;17063;50.892;4.702;2022-12-24T14:18:45;26.07;;;4.07;;
30247;SDS011;17063;50.892;4.702;2022-12-24T14:21:16;27.63;;;4.63;;
30247;SDS011;17063;50.892;4.702;2022-12-24T14:23:58;26.60;;;4.53;;
30247;SDS011;17063;50.892;4.702;2022-12-24T14:26:32;18.60;;;3.67;;
30247;SDS011;17063;50.892;4.702;2022-12-24T14:29:05;23.27;;;4.07;;
30247;SDS011;17063;50.892;4.702;2022-12-24T14:31:37;24.10;;;4.10;;
30247;SDS011;17063;50.892;4.702;2022-12-24T14:34:08;19.80;;;3.77;;
30247;SDS011;17063;50.892;4.702;2022-12-24T14:36:38;28.83;;;4.63;;
30247;SDS011;17063;50.892;4.702;2022-12-24T14:39:09;29.13;;;4.27;;
30247;SDS011;17063;50.892;4.702;2022-12-24T14:47:05;29.40;;;4.10;;
30247;SDS011;17063;50.892;4.702;2022-12-24T14:52:44;19.90;;;3.80;;
30247;SDS011;17063;50.892;4.702;2022-12-24T14:55:36;26.87;;;4.23;;
30247;SDS011;17063;50.892;4.702;2022-12-24T15:01:00;24.37;;;4.00;;
30247;SDS011;17063;50.892;4.702;2022-12-24T15:03:30;25.37;;;4.47;;
30247;SDS011;17063;50.892;4.702;2022-12-24T15:05:59;25.37;;;4.67;;
30247;SDS011;17063;50.892;4.702;2022-12-24T15:08:32;23.23;;;5.60;;
30247;SDS011;17063;50.892;4.702;2022-12-24T15:11:04;16.00;;;4.00;;
30247;SDS011;17063;50.892;4.702;2022-12-24T15:13:34;22.13;;;3.77;;
30247;SDS011;17063;50.892;4.702;2022-12-24T15:16:12;20.10;;;3.77;;
30247;SDS011;17063;50.892;4.702;2022-12-24T15:18:43;24.93;;;4.27;;
30247;SDS011;17063;50.892;4.702;2022-12-24T15:21:37;17.87;;;3.83;;
30247;SDS011;17063;50.892;4.702;2022-12-24T15:24:03;28.33;;;4.90;;
30247;SDS011;17063;50.892;4.702;2022-12-24T15:26:31;20.93;;;4.37;;
30247;SDS011;17063;50.892;4.702;2022-12-24T15:29:12;20.23;;;3.80;;
30247;SDS011;17063;50.892;4.702;2022-12-24T15:31:42;20.53;;;4.00;;
30247;SDS011;17063;50.892;4.702;2022-12-24T15:34:23;23.83;;;4.50;;
30247;SDS011;17063;50.892;4.702;2022-12-24T15:37:05;31.07;;;5.40;;
30247;SDS011;17063;50.892;4.702;2022-12-24T15:39:38;25.73;;;6.03;;
30247;SDS011;17063;50.892;4.702;2022-12-24T15:42:06;24.33;;;4.50;;
30247;SDS011;17063;50.892;4.702;2022-12-24T15:44:41;20.90;;;4.73;;
30247;SDS011;17063;50.892;4.702;2022-12-24T15:47:14;28.07;;;4.90;;
30247;SDS011;17063;50.892;4.702;2022-12-24T15:49:43;21.97;;;4.73;;
30247;SDS011;17063;50.892;4.702;2022-12-24T15:52:15;25.30;;;4.50;;
30247;SDS011;17063;50.892;4.702;2022-12-24T15:54:44;27.93;;;4.87;;
30247;SDS011;17063;50.892;4.702;2022-12-24T15:57:24;21.13;;;4.80;;
30247;SDS011;17063;50.892;4.702;2022-12-24T15:59:53;17.50;;;4.20;;
30247;SDS011;17063;50.892;4.702;2022-12-24T16:04:50;20.47;;;4.70;;
30247;SDS011;17063;50.892;4.702;2022-12-24T16:07:24;27.73;;;6.20;;
30247;SDS011;17063;50.892;4.702;2022-12-24T16:09:52;22.23;;;4.87;;
30247;SDS011;17063;50.892;4.702;2022-12-24T16:12:39;26.57;;;5.37;;
30247;SDS011;17063;50.892;4.702;2022-12-24T16:15:11;23.00;;;5.20;;
30247;SDS011;17063;50.892;4.702;2022-12-24T16:17:39;26.13;;;5.77;;
30247;SDS011;17063;50.892;4.702;2022-12-24T16:20:07;31.77;;;6.17;;
30247;SDS011;17063;50.892;4.702;2022-12-24T16:22:44;26.27;;;6.33;;
30247;SDS011;17063;50.892;4.702;2022-12-24T16:25:25;30.57;;;7.17;;
30247;SDS011;17063;50.892;4.702;2022-12-24T16:27:54;31.07;;;7.27;;
30247;SDS011;17063;50.892;4.702;2022-12-24T16:30:25;25.17;;;6.30;;
30247;SDS011;17063;50.892;4.702;2022-12-24T16:32:52;25.37;;;5.60;;
30247;SDS011;17063;50.892;4.702;2022-12-24T16:35:24;25.77;;;5.30;;
30247;SDS011;17063;50.892;4.702;2022-12-24T16:37:52;31.50;;;5.50;;
30247;SDS011;17063;50.892;4.702;2022-12-24T16:40:20;20.57;;;5.17;;
30247;SDS011;17063;50.892;4.702;2022-12-24T16:42:53;31.23;;;6.50;;
30247;SDS011;17063;50.892;4.702;2022-12-24T16:45:40;26.20;;;7.00;;
30247;SDS011;17063;50.892;4.702;2022-12-24T16:48:07;32.10;;;6.90;;
30247;SDS011;17063;50.892;4.702;2022-12-24T16:50:36;32.63;;;6.67;;
30247;SDS011;17063;50.892;4.702;2022-12-24T16:53:03;27.67;;;6.30;;
30247;SDS011;17063;50.892;4.702;2022-12-24T16:55:31;26.37;;;6.03;;
30247;SDS011;17063;50.892;4.702;2022-12-24T16:57:58;24.97;;;5.97;;
30247;SDS011;17063;50.892;4.702;2022-12-24T17:00:25;26.47;;;5.33;;
30247;SDS011;17063;50.892;4.702;2022-12-24T17:02:52;27.87;;;6.43;;
30247;SDS011;17063;50.892;4.702;2022-12-24T17:05:19;25.00;;;6.23;;
30247;SDS011;17063;50.892;4.702;2022-12-24T17:07:49;26.23;;;6.93;;
30247;SDS011;17063;50.892;4.702;2022-12-24T17:10:17;27.70;;;6.73;;
30247;SDS011;17063;50.892;4.702;2022-12-24T17:12:44;25.03;;;6.10;;
30247;SDS011;17063;50.892;4.702;2022-12-24T17:15:11;28.20;;;5.87;;